sensor_id;sensor_type;location;lat;lon;timestamp;pressure;altitude;pressure_sealevel;temperature;humidity
18755;BME280;35061;47.664;9.166;2023-01-26T00:01:39;102026.37;;;1.58;77.57
18755;BME280;35061;47.664;9.166;2023-01-26T00:04:07;102023.98;;;1.60;77.73
18755;BME280;35061;47.664;9.166;2023-01-26T00:06:35;102022.77;;;1.57;77.69
18755;BME280;35061;47.664;9.166;2023-01-26T00:09:04;102011.85;;;1.52;77.78
18755;BME280;35061;47.664;9.166;2023-01-26T00:11:31;102020.32;;;1.52;77.80
18755;BME280;35061;47.664;9.166;2023-01-26T00:13:59;102012.27;;;1.50;77.65
18755;BME280;35061;47.664;9.166;2023-01-26T00:16:27;102001.77;;;1.51;77.59
18755;BME280;35061;47.664;9.166;2023-01-26T00:18:55;102002.98;;;1.50;77.69
18755;BME280;35061;47.664;9.166;2023-01-26T00:21:23;102000.57;;;1.45;77.35
18755;BME280;35061;47.664;9.166;2023-01-26T00:23:52;101996.48;;;1.35;77.52
18755;BME280;35061;47.664;9.166;2023-01-26T00:26:22;101995.27;;;1.29;77.81
18755;BME280;35061;47.664;9.166;2023-01-26T00:28:51;101997.30;;;1.28;77.71
18755;BME280;35061;47.664;9.166;2023-01-26T00:31:22;101992.03;;;1.27;77.75
18755;BME280;35061;47.664;9.166;2023-01-26T00:33:51;101988.41;;;1.22;77.88
18755;BME280;35061;47.664;9.166;2023-01-26T00:36:19;101999.29;;;1.20;77.90
18755;BME280;35061;47.664;9.166;2023-01-26T00:38:47;101999.29;;;1.20;78.05
18755;BME280;35061;47.664;9.166;2023-01-26T00:41:15;102005.73;;;1.21;78.12
18755;BME280;35061;47.664;9.166;2023-01-26T00:44:02;101997.69;;;1.19;78.23
18755;BME280;35061;47.664;9.166;2023-01-26T00:46:30;101998.90;;;1.18;78.25
18755;BME280;35061;47.664;9.166;2023-01-26T00:48:57;101998.05;;;1.14;78.43
18755;BME280;35061;47.664;9.166;2023-01-26T00:51:30;102004.91;;;1.13;78.40
18755;BME280;35061;47.664;9.166;2023-01-26T00:53:57;101998.45;;;1.09;78.54
18755;BME280;35061;47.664;9.166;2023-01-26T00:56:25;101990.01;;;1.13;78.60
18755;BME280;35061;47.664;9.166;2023-01-26T00:58:54;101991.61;;;1.10;78.55
18755;BME280;35061;47.664;9.166;2023-01-26T01:01:22;101993.60;;;1.09;78.51
18755;BME280;35061;47.664;9.166;2023-01-26T01:03:49;101991.18;;;1.11;78.66
18755;BME280;35061;47.664;9.166;2023-01-26T01:06:18;101990.79;;;1.13;78.66
18755;BME280;35061;47.664;9.166;2023-01-26T01:08:46;101992.03;;;1.19;78.53
18755;BME280;35061;47.664;9.166;2023-01-26T01:11:14;101989.22;;;1.27;78.79
18755;BME280;35061;47.664;9.166;2023-01-26T01:13:41;101993.27;;;1.33;78.73
18755;BME280;35061;47.664;9.166;2023-01-26T01:16:11;101984.80;;;1.36;78.36
18755;BME280;35061;47.664;9.166;2023-01-26T01:18:39;101989.25;;;1.41;78.49
18755;BME280;35061;47.664;9.166;2023-01-26T01:21:09;101991.28;;;1.48;78.34
18755;BME280;35061;47.664;9.166;2023-01-26T01:23:37;101993.70;;;1.49;78.21
18755;BME280;35061;47.664;9.166;2023-01-26T01:26:06;101996.94;;;1.51;78.03
18755;BME280;35061;47.664;9.166;2023-01-26T01:28:34;101993.70;;;1.49;77.68
18755;BME280;35061;47.664;9.166;2023-01-26T01:31:04;101990.04;;;1.42;77.62
18755;BME280;35061;47.664;9.166;2023-01-26T01:33:32;101992.88;;;1.42;77.81
18755;BME280;35061;47.664;9.166;2023-01-26T01:36:03;101992.46;;;1.39;77.57
18755;BME280;35061;47.664;9.166;2023-01-26T01:38:31;101984.02;;;1.43;77.83
18755;BME280;35061;47.664;9.166;2023-01-26T01:40:59;101977.97;;;1.45;77.76
18755;BME280;35061;47.664;9.166;2023-01-26T01:43:27;101980.00;;;1.48;77.81
18755;BME280;35061;47.664;9.166;2023-01-26T01:45:55;101965.05;;;1.44;77.44
18755;BME280;35061;47.664;9.166;2023-01-26T01:53:56;101974.73;;;1.39;77.37
18755;BME280;35061;47.664;9.166;2023-01-26T01:56:27;101968.65;;;1.37;77.67
18755;BME280;35061;47.664;9.166;2023-01-26T01:58:57;101969.50;;;1.41;77.69
18755;BME280;35061;47.664;9.166;2023-01-26T02:01:26;101965.45;;;1.38;77.39
18755;BME280;35061;47.664;9.166;2023-01-26T02:03:59;101967.48;;;1.42;77.67
18755;BME280;35061;47.664;9.166;2023-01-26T02:06:52;101965.84;;;1.41;76.94
18755;BME280;35061;47.664;9.166;2023-01-26T02:09:27;101966.23;;;1.28;76.87
18755;BME280;35061;47.664;9.166;2023-01-26T02:12:18;101962.99;;;1.22;77.23
18755;BME280;35061;47.664;9.166;2023-01-26T02:14:48;101962.21;;;1.18;77.20
18755;BME280;35061;47.664;9.166;2023-01-26T02:17:16;101960.15;;;1.08;77.03
18755;BME280;35061;47.664;9.166;2023-01-26T02:22:55;101964.14;;;0.92;77.32
18755;BME280;35061;47.664;9.166;2023-01-26T02:28:09;101946.35;;;0.81;77.52
18755;BME280;35061;47.664;9.166;2023-01-26T02:30:37;101947.95;;;0.78;77.63
18755;BME280;35061;47.664;9.166;2023-01-26T02:33:05;101951.62;;;0.79;77.71
18755;BME280;35061;47.664;9.166;2023-01-26T02:35:33;101944.36;;;0.81;77.91
18755;BME280;35061;47.664;9.166;2023-01-26T02:38:01;101938.73;;;0.85;77.89
18755;BME280;35061;47.664;9.166;2023-01-26T02:40:35;101929.48;;;0.88;77.70
18755;BME280;35061;47.664;9.166;2023-01-26T02:43:04;101932.29;;;0.88;77.76
18755;BME280;35061;47.664;9.166;2023-01-26T02:45:33;101927.84;;;0.94;77.67
18755;BME280;35061;47.664;9.166;2023-01-26T02:48:00;101929.48;;;0.95;77.67
18755;BME280;35061;47.664;9.166;2023-01-26T02:50:31;101931.90;;;0.97;77.58
18755;BME280;35061;47.664;9.166;2023-01-26T02:53:00;101931.90;;;0.93;77.64
18755;BME280;35061;47.664;9.166;2023-01-26T02:55:28;101924.64;;;0.96;77.38
18755;BME280;35061;47.664;9.166;2023-01-26T02:57:59;101917.38;;;0.88;77.40
18755;BME280;35061;47.664;9.166;2023-01-26T03:00:30;101915.38;;;0.92;77.78
18755;BME280;35061;47.664;9.166;2023-01-26T03:02:59;101908.13;;;0.94;77.88
18755;BME280;35061;47.664;9.166;2023-01-26T03:05:27;101909.73;;;0.99;77.98
18755;BME280;35061;47.664;9.166;2023-01-26T03:07:55;101909.76;;;1.06;77.88
18755;BME280;35061;47.664;9.166;2023-01-26T03:10:23;101906.52;;;1.11;77.88
18755;BME280;35061;47.664;9.166;2023-01-26T03:12:51;101911.39;;;1.11;77.35
18755;BME280;35061;47.664;9.166;2023-01-26T03:15:19;101899.69;;;1.13;77.47
18755;BME280;35061;47.664;9.166;2023-01-26T03:18:08;101896.05;;;1.12;77.48
18755;BME280;35061;47.664;9.166;2023-01-26T03:21:09;101888.80;;;1.11;77.62
18755;BME280;35061;47.664;9.166;2023-01-26T03:24:14;101881.15;;;1.11;77.59
18755;BME280;35061;47.664;9.166;2023-01-26T03:27:00;101881.57;;;1.17;77.53
18755;BME280;35061;47.664;9.166;2023-01-26T03:29:47;101888.41;;;1.23;77.63
18755;BME280;35061;47.664;9.166;2023-01-26T03:32:14;101878.73;;;1.21;77.18
18755;BME280;35061;47.664;9.166;2023-01-26T03:34:42;101883.56;;;1.17;77.11
18755;BME280;35061;47.664;9.166;2023-01-26T03:37:10;101876.30;;;1.12;77.19
18755;BME280;35061;47.664;9.166;2023-01-26T03:39:38;101867.84;;;1.08;77.39
18755;BME280;35061;47.664;9.166;2023-01-26T03:42:24;101873.07;;;1.06;77.59
18755;BME280;35061;47.664;9.166;2023-01-26T03:45:11;101868.66;;;1.09;77.38
18755;BME280;35061;47.664;9.166;2023-01-26T03:48:11;101867.02;;;1.04;77.60
18755;BME280;35061;47.664;9.166;2023-01-26T03:50:57;101856.52;;;1.05;77.41
18755;BME280;35061;47.664;9.166;2023-01-26T03:53:44;101852.93;;;1.08;77.74
18755;BME280;35061;47.664;9.166;2023-01-26T03:56:30;101864.63;;;1.10;77.41
18755;BME280;35061;47.664;9.166;2023-01-26T03:59:02;101860.58;;;1.11;77.40
18755;BME280;35061;47.664;9.166;2023-01-26T04:01:39;101858.98;;;1.10;77.36
18755;BME280;35061;47.664;9.166;2023-01-26T04:04:09;101856.16;;;1.14;77.33
18755;BME280;35061;47.664;9.166;2023-01-26T04:06:56;101854.95;;;1.15;77.35
18755;BME280;35061;47.664;9.166;2023-01-26T04:09:42;101867.45;;;1.14;77.33
18755;BME280;35061;47.664;9.166;2023-01-26T04:12:10;101863.81;;;1.20;77.39
18755;BME280;35061;47.664;9.166;2023-01-26T04:14:38;101861.40;;;1.26;77.44
18755;BME280;35061;47.664;9.166;2023-01-26T04:17:24;101865.02;;;1.23;77.02
18755;BME280;35061;47.664;9.166;2023-01-26T04:20:11;101860.19;;;1.23;77.02
18755;BME280;35061;47.664;9.166;2023-01-26T04:22:57;101854.13;;;1.21;76.72
18755;BME280;35061;47.664;9.166;2023-01-26T04:25:25;101852.93;;;1.22;76.36
18755;BME280;35061;47.664;9.166;2023-01-26T04:27:53;101857.77;;;1.18;76.50
18755;BME280;35061;47.664;9.166;2023-01-26T04:30:21;101847.27;;;1.15;76.64
18755;BME280;35061;47.664;9.166;2023-01-26T04:32:49;101843.67;;;1.11;76.21
18755;BME280;35061;47.664;9.166;2023-01-26T04:35:17;101844.45;;;1.04;76.56
18755;BME280;35061;47.664;9.166;2023-01-26T04:37:46;101841.22;;;1.06;76.81
18755;BME280;35061;47.664;9.166;2023-01-26T04:40:14;101842.04;;;1.03;76.88
18755;BME280;35061;47.664;9.166;2023-01-26T04:42:42;101833.17;;;1.04;76.71
18755;BME280;35061;47.664;9.166;2023-01-26T04:45:10;101835.98;;;1.01;76.75
18755;BME280;35061;47.664;9.166;2023-01-26T04:47:38;101829.94;;;0.99;76.87
18755;BME280;35061;47.664;9.166;2023-01-26T04:50:06;101837.20;;;1.00;76.98
18755;BME280;35061;47.664;9.166;2023-01-26T04:52:34;101831.97;;;1.02;76.84
18755;BME280;35061;47.664;9.166;2023-01-26T04:55:02;101829.94;;;0.99;76.81
18755;BME280;35061;47.664;9.166;2023-01-26T04:57:30;101829.94;;;0.95;76.83
18755;BME280;35061;47.664;9.166;2023-01-26T04:59:57;101821.08;;;0.93;76.78
18755;BME280;35061;47.664;9.166;2023-01-26T05:02:25;101816.23;;;0.93;76.59
18755;BME280;35061;47.664;9.166;2023-01-26T05:04:53;101809.40;;;0.87;76.89
18755;BME280;35061;47.664;9.166;2023-01-26T05:07:21;101813.82;;;0.88;77.01
18755;BME280;35061;47.664;9.166;2023-01-26T05:09:48;101812.18;;;0.94;77.06
18755;BME280;35061;47.664;9.166;2023-01-26T05:12:16;101814.24;;;1.01;77.03
18755;BME280;35061;47.664;9.166;2023-01-26T05:15:03;101812.21;;;1.02;76.86
18755;BME280;35061;47.664;9.166;2023-01-26T05:17:31;101813.03;;;1.02;76.56
18755;BME280;35061;47.664;9.166;2023-01-26T05:19:59;101809.01;;;1.07;76.37
18755;BME280;35061;47.664;9.166;2023-01-26T05:22:27;101817.88;;;1.13;76.64
18755;BME280;35061;47.664;9.166;2023-01-26T05:24:54;101809.37;;;1.20;76.58
18755;BME280;35061;47.664;9.166;2023-01-26T05:27:22;101820.29;;;1.21;76.27
18755;BME280;35061;47.664;9.166;2023-01-26T05:29:50;101810.58;;;1.19;75.92
18755;BME280;35061;47.664;9.166;2023-01-26T05:32:18;101811.79;;;1.18;75.80
18755;BME280;35061;47.664;9.166;2023-01-26T05:34:46;101813.03;;;1.17;76.06
18755;BME280;35061;47.664;9.166;2023-01-26T05:37:14;101808.59;;;1.16;76.07
18755;BME280;35061;47.664;9.166;2023-01-26T05:39:41;101808.59;;;1.19;75.99
18755;BME280;35061;47.664;9.166;2023-01-26T05:42:10;101811.01;;;1.17;76.04
18755;BME280;35061;47.664;9.166;2023-01-26T05:44:38;101810.58;;;1.19;75.78
18755;BME280;35061;47.664;9.166;2023-01-26T05:47:06;101810.97;;;1.21;75.95
18755;BME280;35061;47.664;9.166;2023-01-26T05:49:34;101808.98;;;1.21;75.86
18755;BME280;35061;47.664;9.166;2023-01-26T05:52:11;101809.37;;;1.23;75.87
18755;BME280;35061;47.664;9.166;2023-01-26T05:54:40;101813.42;;;1.26;75.71
18755;BME280;35061;47.664;9.166;2023-01-26T05:57:08;101814.63;;;1.29;75.67
18755;BME280;35061;47.664;9.166;2023-01-26T05:59:36;101819.08;;;1.30;75.65
18755;BME280;35061;47.664;9.166;2023-01-26T06:02:04;101816.23;;;1.30;75.44
18755;BME280;35061;47.664;9.166;2023-01-26T06:04:32;101826.73;;;1.33;74.89
18755;BME280;35061;47.664;9.166;2023-01-26T06:07:00;101824.31;;;1.24;75.17
18755;BME280;35061;47.664;9.166;2023-01-26T06:09:27;101822.71;;;1.23;75.54
18755;BME280;35061;47.664;9.166;2023-01-26T06:11:56;101819.48;;;1.24;75.54
18755;BME280;35061;47.664;9.166;2023-01-26T06:14:24;101817.84;;;1.31;75.55
18755;BME280;35061;47.664;9.166;2023-01-26T06:16:51;101832.75;;;1.35;75.54
18755;BME280;35061;47.664;9.166;2023-01-26T06:19:20;101835.59;;;1.38;75.41
18755;BME280;35061;47.664;9.166;2023-01-26T06:21:48;101836.41;;;1.39;75.46
18755;BME280;35061;47.664;9.166;2023-01-26T06:24:16;101834.38;;;1.36;75.05
18755;BME280;35061;47.664;9.166;2023-01-26T06:26:46;101837.20;;;1.36;75.25
18755;BME280;35061;47.664;9.166;2023-01-26T06:29:14;101843.28;;;1.34;75.13
18755;BME280;35061;47.664;9.166;2023-01-26T06:31:42;101840.44;;;1.34;75.24
18755;BME280;35061;47.664;9.166;2023-01-26T06:34:10;101840.40;;;1.38;75.42
18755;BME280;35061;47.664;9.166;2023-01-26T06:36:38;101842.85;;;1.36;75.21
18755;BME280;35061;47.664;9.166;2023-01-26T06:39:05;101846.87;;;1.35;75.35
18755;BME280;35061;47.664;9.166;2023-01-26T06:41:33;101850.12;;;1.33;75.28
18755;BME280;35061;47.664;9.166;2023-01-26T06:44:01;101840.44;;;1.31;74.84
18755;BME280;35061;47.664;9.166;2023-01-26T06:46:29;101837.63;;;1.27;74.97
18755;BME280;35061;47.664;9.166;2023-01-26T06:48:57;101836.80;;;1.19;74.97
18755;BME280;35061;47.664;9.166;2023-01-26T06:51:46;101846.48;;;1.18;75.28
18755;BME280;35061;47.664;9.166;2023-01-26T06:54:14;101838.80;;;1.15;75.18
18755;BME280;35061;47.664;9.166;2023-01-26T06:56:42;101827.95;;;1.14;75.37
18755;BME280;35061;47.664;9.166;2023-01-26T06:59:10;101827.13;;;1.13;75.24
18755;BME280;35061;47.664;9.166;2023-01-26T07:01:43;101828.76;;;1.07;76.59
18755;BME280;35061;47.664;9.166;2023-01-26T07:04:12;101827.13;;;1.35;75.97
18755;BME280;35061;47.664;9.166;2023-01-26T07:06:40;101820.69;;;1.27;74.81
18755;BME280;35061;47.664;9.166;2023-01-26T07:09:08;101823.49;;;1.23;75.76
18755;BME280;35061;47.664;9.166;2023-01-26T07:11:36;101827.91;;;1.24;76.07
18755;BME280;35061;47.664;9.166;2023-01-26T07:14:03;101831.57;;;1.29;75.77
18755;BME280;35061;47.664;9.166;2023-01-26T07:16:31;101833.57;;;1.28;75.88
18755;BME280;35061;47.664;9.166;2023-01-26T07:18:59;101833.96;;;1.27;75.61
18755;BME280;35061;47.664;9.166;2023-01-26T07:21:27;101830.36;;;1.22;75.44
18755;BME280;35061;47.664;9.166;2023-01-26T07:23:55;101828.73;;;1.18;75.20
18755;BME280;35061;47.664;9.166;2023-01-26T07:26:23;101832.39;;;1.15;75.50
18755;BME280;35061;47.664;9.166;2023-01-26T07:28:50;101833.99;;;1.12;75.21
18755;BME280;35061;47.664;9.166;2023-01-26T07:31:18;101837.63;;;1.09;75.46
18755;BME280;35061;47.664;9.166;2023-01-26T07:33:46;101833.57;;;1.03;75.19
18755;BME280;35061;47.664;9.166;2023-01-26T07:36:14;101830.36;;;1.04;75.36
18755;BME280;35061;47.664;9.166;2023-01-26T07:38:41;101826.70;;;1.04;75.44
18755;BME280;35061;47.664;9.166;2023-01-26T07:41:11;101831.15;;;1.05;75.49
18755;BME280;35061;47.664;9.166;2023-01-26T07:43:39;101826.70;;;1.04;75.28
18755;BME280;35061;47.664;9.166;2023-01-26T07:46:09;101829.94;;;1.02;75.35
18755;BME280;35061;47.664;9.166;2023-01-26T07:48:37;101828.34;;;1.01;75.22
18755;BME280;35061;47.664;9.166;2023-01-26T07:51:05;101832.78;;;0.99;75.10
18755;BME280;35061;47.664;9.166;2023-01-26T07:53:36;101830.73;;;0.99;75.31
18755;BME280;35061;47.664;9.166;2023-01-26T07:56:11;101815.84;;;0.95;75.19
18755;BME280;35061;47.664;9.166;2023-01-26T07:58:39;101823.10;;;1.00;75.46
18755;BME280;35061;47.664;9.166;2023-01-26T08:01:13;101818.23;;;1.00;75.10
18755;BME280;35061;47.664;9.166;2023-01-26T08:03:41;101822.25;;;0.95;75.05
18755;BME280;35061;47.664;9.166;2023-01-26T08:06:12;101816.63;;;0.99;75.46
18755;BME280;35061;47.664;9.166;2023-01-26T08:08:41;101826.30;;;1.02;75.33
18755;BME280;35061;47.664;9.166;2023-01-26T08:11:10;101820.29;;;1.03;75.18
18755;BME280;35061;47.664;9.166;2023-01-26T08:13:38;101829.16;;;1.05;75.13
18755;BME280;35061;47.664;9.166;2023-01-26T08:16:07;101819.48;;;1.10;75.05
18755;BME280;35061;47.664;9.166;2023-01-26T08:18:40;101824.28;;;1.09;75.05
18755;BME280;35061;47.664;9.166;2023-01-26T08:21:09;101822.68;;;1.08;74.54
18755;BME280;35061;47.664;9.166;2023-01-26T08:23:38;101820.69;;;1.13;75.00
18755;BME280;35061;47.664;9.166;2023-01-26T08:26:09;101826.30;;;1.16;74.87
18755;BME280;35061;47.664;9.166;2023-01-26T08:28:38;101816.23;;;1.19;74.65
18755;BME280;35061;47.664;9.166;2023-01-26T08:31:08;101816.23;;;1.22;74.74
18755;BME280;35061;47.664;9.166;2023-01-26T08:33:41;101825.10;;;1.24;74.24
18755;BME280;35061;47.664;9.166;2023-01-26T08:36:11;101822.68;;;1.27;74.42
18755;BME280;35061;47.664;9.166;2023-01-26T08:38:39;101816.23;;;1.22;73.72
18755;BME280;35061;47.664;9.166;2023-01-26T08:41:08;101822.71;;;1.23;74.08
18755;BME280;35061;47.664;9.166;2023-01-26T08:43:36;101821.89;;;1.26;74.06
18755;BME280;35061;47.664;9.166;2023-01-26T08:46:05;101814.21;;;1.27;73.88
18755;BME280;35061;47.664;9.166;2023-01-26T08:48:33;101809.77;;;1.22;73.58
18755;BME280;35061;47.664;9.166;2023-01-26T08:51:03;101814.63;;;1.21;73.99
18755;BME280;35061;47.664;9.166;2023-01-26T08:53:32;101814.63;;;1.25;73.92
18755;BME280;35061;47.664;9.166;2023-01-26T08:56:01;101812.21;;;1.27;73.63
18755;BME280;35061;47.664;9.166;2023-01-26T08:58:29;101820.29;;;1.29;73.44
18755;BME280;35061;47.664;9.166;2023-01-26T09:00:58;101820.29;;;1.29;73.68
18755;BME280;35061;47.664;9.166;2023-01-26T09:03:29;101822.29;;;1.28;73.40
18755;BME280;35061;47.664;9.166;2023-01-26T09:06:01;101817.05;;;1.23;73.39
18755;BME280;35061;47.664;9.166;2023-01-26T09:08:29;101814.24;;;1.23;73.44
18755;BME280;35061;47.664;9.166;2023-01-26T09:10:57;101817.02;;;1.27;73.53
18755;BME280;35061;47.664;9.166;2023-01-26T09:13:25;101811.01;;;1.28;73.49
18755;BME280;35061;47.664;9.166;2023-01-26T09:15:53;101811.01;;;1.39;73.56
18755;BME280;35061;47.664;9.166;2023-01-26T09:18:21;101810.58;;;1.41;73.40
18755;BME280;35061;47.664;9.166;2023-01-26T09:20:48;101822.29;;;1.39;73.27
18755;BME280;35061;47.664;9.166;2023-01-26T09:23:17;101814.21;;;1.41;73.01
18755;BME280;35061;47.664;9.166;2023-01-26T09:25:45;101814.99;;;1.42;73.16
18755;BME280;35061;47.664;9.166;2023-01-26T09:28:18;101813.39;;;1.44;73.24
18755;BME280;35061;47.664;9.166;2023-01-26T09:30:46;101824.28;;;1.46;73.41
18755;BME280;35061;47.664;9.166;2023-01-26T09:33:14;101825.49;;;1.48;72.92
18755;BME280;35061;47.664;9.166;2023-01-26T09:35:42;101814.99;;;1.49;73.30
18755;BME280;35061;47.664;9.166;2023-01-26T09:38:09;101810.97;;;1.50;73.29
18755;BME280;35061;47.664;9.166;2023-01-26T09:43:42;101820.23;;;1.58;72.91
18755;BME280;35061;47.664;9.166;2023-01-26T09:51:41;101807.70;;;1.66;72.70
18755;BME280;35061;47.664;9.166;2023-01-26T09:54:38;101804.89;;;1.77;72.45
18755;BME280;35061;47.664;9.166;2023-01-26T09:57:13;101804.83;;;1.80;71.89
18755;BME280;35061;47.664;9.166;2023-01-26T09:59:52;101808.88;;;1.79;71.12
18755;BME280;35061;47.664;9.166;2023-01-26T10:02:45;101810.52;;;1.73;71.46
18755;BME280;35061;47.664;9.166;2023-01-26T10:05:24;101813.75;;;1.68;71.84
18755;BME280;35061;47.664;9.166;2023-01-26T10:07:56;101812.57;;;1.65;71.66
18755;BME280;35061;47.664;9.166;2023-01-26T10:10:30;101812.97;;;1.57;71.36
18755;BME280;35061;47.664;9.166;2023-01-26T10:12:59;101810.58;;;1.48;71.08
18755;BME280;35061;47.664;9.166;2023-01-26T10:15:29;101813.78;;;1.46;71.44
18755;BME280;35061;47.664;9.166;2023-01-26T10:18:05;101810.19;;;1.42;71.75
18755;BME280;35061;47.664;9.166;2023-01-26T10:20:41;101798.48;;;1.40;71.79
18755;BME280;35061;47.664;9.166;2023-01-26T10:23:16;101799.27;;;1.37;71.73
18755;BME280;35061;47.664;9.166;2023-01-26T10:25:45;101796.88;;;1.39;72.21
18755;BME280;35061;47.664;9.166;2023-01-26T10:28:36;101797.66;;;1.47;72.29
18755;BME280;35061;47.664;9.166;2023-01-26T10:31:07;101795.63;;;1.51;72.17
18755;BME280;35061;47.664;9.166;2023-01-26T10:33:48;101802.11;;;1.51;72.10
18755;BME280;35061;47.664;9.166;2023-01-26T10:36:16;101788.77;;;1.56;71.94
18755;BME280;35061;47.664;9.166;2023-01-26T10:38:45;101781.12;;;1.52;72.10
18755;BME280;35061;47.664;9.166;2023-01-26T10:43:42;101788.80;;;1.45;72.22
18755;BME280;35061;47.664;9.166;2023-01-26T10:46:28;101789.98;;;1.47;72.30
18755;BME280;35061;47.664;9.166;2023-01-26T10:48:59;101785.95;;;1.48;72.26
18755;BME280;35061;47.664;9.166;2023-01-26T10:51:32;101787.98;;;1.48;71.46
18755;BME280;35061;47.664;9.166;2023-01-26T10:57:04;101788.77;;;1.56;71.42
18755;BME280;35061;47.664;9.166;2023-01-26T10:59:59;101784.78;;;1.49;70.95
18755;BME280;35061;47.664;9.166;2023-01-26T11:02:35;101781.12;;;1.52;71.18
18755;BME280;35061;47.664;9.166;2023-01-26T11:07:36;101787.59;;;1.49;70.76
18755;BME280;35061;47.664;9.166;2023-01-26T11:12:48;101783.96;;;1.49;70.85
18755;BME280;35061;47.664;9.166;2023-01-26T11:15:23;101790.37;;;1.57;70.88
18755;BME280;35061;47.664;9.166;2023-01-26T11:17:59;101789.20;;;1.50;70.33
18755;BME280;35061;47.664;9.166;2023-01-26T11:20:47;101787.16;;;1.47;69.89
18755;BME280;35061;47.664;9.166;2023-01-26T11:23:39;101796.45;;;1.44;69.92
18755;BME280;35061;47.664;9.166;2023-01-26T11:26:30;101789.98;;;1.47;70.40
18755;BME280;35061;47.664;9.166;2023-01-26T11:29:11;101790.37;;;1.53;70.62
18755;BME280;35061;47.664;9.166;2023-01-26T11:39:59;101783.11;;;1.52;69.95
18755;BME280;35061;47.664;9.166;2023-01-26T11:42:38;101778.70;;;1.47;69.44
18755;BME280;35061;47.664;9.166;2023-01-26T11:45:46;101765.78;;;1.46;69.61
18755;BME280;35061;47.664;9.166;2023-01-26T11:51:02;101766.60;;;1.47;69.64
18755;BME280;35061;47.664;9.166;2023-01-26T11:53:37;101776.31;;;1.46;68.52
18755;BME280;35061;47.664;9.166;2023-01-26T11:56:29;101769.45;;;1.50;69.74
18755;BME280;35061;47.664;9.166;2023-01-26T11:59:05;101759.73;;;1.55;69.47
18755;BME280;35061;47.664;9.166;2023-01-26T12:01:42;101758.91;;;1.58;68.29
18755;BME280;35061;47.664;9.166;2023-01-26T12:04:21;101758.09;;;1.58;69.30
18755;BME280;35061;47.664;9.166;2023-01-26T12:06:53;101758.52;;;1.49;68.91
18755;BME280;35061;47.664;9.166;2023-01-26T12:09:58;101756.52;;;1.42;68.57
18755;BME280;35061;47.664;9.166;2023-01-26T12:12:39;101752.54;;;1.29;68.68
18755;BME280;35061;47.664;9.166;2023-01-26T12:15:32;101744.07;;;1.29;69.37
18755;BME280;35061;47.664;9.166;2023-01-26T12:18:20;101739.23;;;1.33;69.55
18755;BME280;35061;47.664;9.166;2023-01-26T12:20:59;101742.04;;;1.29;68.92
18755;BME280;35061;47.664;9.166;2023-01-26T12:23:35;101738.02;;;1.30;69.14
18755;BME280;35061;47.664;9.166;2023-01-26T12:26:13;101740.83;;;1.30;69.44
18755;BME280;35061;47.664;9.166;2023-01-26T12:31:29;101735.56;;;1.36;69.54
18755;BME280;35061;47.664;9.166;2023-01-26T12:34:00;101727.52;;;1.34;69.07
18755;BME280;35061;47.664;9.166;2023-01-26T12:36:42;101723.89;;;1.34;69.28
18755;BME280;35061;47.664;9.166;2023-01-26T12:39:21;101728.30;;;1.35;69.53
18755;BME280;35061;47.664;9.166;2023-01-26T12:42:00;101731.91;;;1.43;69.88
18755;BME280;35061;47.664;9.166;2023-01-26T12:52:20;101721.44;;;1.50;69.16
18755;BME280;35061;47.664;9.166;2023-01-26T12:55:17;101725.88;;;1.48;69.07
18755;BME280;35061;47.664;9.166;2023-01-26T12:57:53;101725.46;;;1.49;69.03
18755;BME280;35061;47.664;9.166;2023-01-26T13:00:23;101717.38;;;1.55;69.13
18755;BME280;35061;47.664;9.166;2023-01-26T13:02:55;101722.65;;;1.49;68.84
18755;BME280;35061;47.664;9.166;2023-01-26T13:05:29;101712.58;;;1.37;69.17
18755;BME280;35061;47.664;9.166;2023-01-26T13:07:57;101723.50;;;1.32;69.47
18755;BME280;35061;47.664;9.166;2023-01-26T13:10:27;101721.51;;;1.29;69.45
18755;BME280;35061;47.664;9.166;2023-01-26T13:13:01;101720.69;;;1.28;69.79
18755;BME280;35061;47.664;9.166;2023-01-26T13:18:57;101710.98;;;1.33;69.74
18755;BME280;35061;47.664;9.166;2023-01-26T13:26:47;101702.90;;;1.35;70.29
18755;BME280;35061;47.664;9.166;2023-01-26T13:31:57;101702.11;;;1.34;70.38
18755;BME280;35061;47.664;9.166;2023-01-26T13:34:31;101707.38;;;1.25;70.62
18755;BME280;35061;47.664;9.166;2023-01-26T13:37:11;101696.49;;;1.23;70.82
18755;BME280;35061;47.664;9.166;2023-01-26T13:39:45;101698.48;;;1.27;70.82
18755;BME280;35061;47.664;9.166;2023-01-26T13:42:19;101693.25;;;1.29;70.75
18755;BME280;35061;47.664;9.166;2023-01-26T13:44:57;101702.51;;;1.36;70.65
18755;BME280;35061;47.664;9.166;2023-01-26T13:47:34;101696.06;;;1.36;70.45
18755;BME280;35061;47.664;9.166;2023-01-26T13:50:33;101689.20;;;1.41;70.66
18755;BME280;35061;47.664;9.166;2023-01-26T13:53:36;101694.43;;;1.49;70.27
18755;BME280;35061;47.664;9.166;2023-01-26T13:56:17;101698.42;;;1.56;70.22
18755;BME280;35061;47.664;9.166;2023-01-26T13:58:46;101705.28;;;1.55;69.87
18755;BME280;35061;47.664;9.166;2023-01-26T14:01:14;101698.42;;;1.56;69.80
18755;BME280;35061;47.664;9.166;2023-01-26T14:03:43;101701.63;;;1.58;69.82
18755;BME280;35061;47.664;9.166;2023-01-26T14:06:19;101698.38;;;1.59;69.35
18755;BME280;35061;47.664;9.166;2023-01-26T14:08:54;101701.63;;;1.58;69.47
18755;BME280;35061;47.664;9.166;2023-01-26T14:11:24;101699.23;;;1.60;69.55
18755;BME280;35061;47.664;9.166;2023-01-26T14:13:56;101695.97;;;1.58;69.38
18755;BME280;35061;47.664;9.166;2023-01-26T14:16:29;101703.23;;;1.59;69.36
18755;BME280;35061;47.664;9.166;2023-01-26T14:19:18;101701.66;;;1.50;68.64
18755;BME280;35061;47.664;9.166;2023-01-26T14:24:38;101694.04;;;1.44;68.98
18755;BME280;35061;47.664;9.166;2023-01-26T14:30:37;101704.89;;;1.45;68.73
18755;BME280;35061;47.664;9.166;2023-01-26T14:33:13;101694.43;;;1.46;69.07
18755;BME280;35061;47.664;9.166;2023-01-26T14:35:53;101703.29;;;1.41;68.82
18755;BME280;35061;47.664;9.166;2023-01-26T14:38:21;101708.55;;;1.38;68.94